Time;durP1;ratioP1;P1;durP2;ratioP2;P2;SDS_P1;SDS_P2;PMS_P1;PMS_P2;Temp;Humidity;BMP_temperature;BMP_pressure;BME280_temperature;BME280_humidity;BME280_pressure;Samples;Min_cycle;Max_cycle;Signal;HPM_P1;HPM_P2
2023/07/06 00:00:40;;;;;;;26.33;6.50;;;12.10;99.90;;;;;;4921914;28;226574;-72
2023/07/06 00:03:06;;;;;;;16.10;7.00;;;12.00;99.90;;;;;;4990773;28;20073;-71
2023/07/06 00:05:34;;;;;;;15.00;7.04;;;12.10;99.90;;;;;;4963260;28;220243;-69
2023/07/06 00:08:00;;;;;;;15.85;7.28;;;12.00;99.90;;;;;;4950288;28;216621;-71
2023/07/06 00:10:26;;;;;;;17.15;7.50;;;12.10;99.90;;;;;;4983404;28;20057;-71
2023/07/06 00:12:53;;;;;;;12.32;6.57;;;12.10;99.90;;;;;;4954486;28;131116;-71
2023/07/06 00:15:19;;;;;;;15.13;7.00;;;12.10;99.90;;;;;;4979952;28;20050;-72
2023/07/06 00:17:47;;;;;;;17.20;7.38;;;12.10;99.90;;;;;;4945995;28;210884;-72
2023/07/06 00:20:14;;;;;;;14.63;7.38;;;12.10;99.90;;;;;;4983114;28;20046;-71
2023/07/06 00:22:40;;;;;;;22.98;8.43;;;12.10;99.90;;;;;;4954904;28;211349;-72
2023/07/06 00:25:07;;;;;;;15.52;7.80;;;12.10;99.90;;;;;;4981783;28;20537;-71
2023/07/06 00:27:33;;;;;;;18.77;8.27;;;12.10;99.90;;;;;;4952463;28;79710;-72
2023/07/06 00:31:08;;;;;;;18.23;8.70;;;12.10;99.90;;;;;;4979189;28;20080;-71
2023/07/06 00:32:55;;;;;;;18.02;8.45;;;12.10;99.90;;;;;;4961962;28;121058;-72
2023/07/06 00:35:22;;;;;;;15.93;8.20;;;12.10;99.90;;;;;;4980280;28;20066;-70
2023/07/06 00:37:51;;;;;;;17.95;8.82;;;12.10;99.90;;;;;;4934621;28;212459;-71
2023/07/06 00:40:17;;;;;;;20.90;9.48;;;12.10;99.90;;;;;;4983380;28;20046;-71
2023/07/06 00:42:44;;;;;;;16.42;8.38;;;12.10;99.90;;;;;;4978836;28;209865;-70
2023/07/06 00:45:11;;;;;;;18.63;9.25;;;12.10;99.90;;;;;;4979080;28;20500;-71
2023/07/06 00:47:45;;;;;;;20.45;9.57;;;12.10;99.90;;;;;;4926300;28;213380;-70
2023/07/06 00:50:21;;;;;;;19.88;9.50;;;12.10;99.90;;;;;;4988475;28;20062;-70
2023/07/06 00:52:52;;;;;;;26.80;9.75;;;12.10;99.90;;;;;;4961061;28;213934;-69
2023/07/06 00:55:25;;;;;;;21.50;9.75;;;12.10;99.90;;;;;;4977771;28;20062;-71
2023/07/06 00:57:58;;;;;;;18.98;9.77;;;12.10;99.90;;;;;;4924309;28;215618;-71
2023/07/06 01:00:24;;;;;;;20.55;10.35;;;12.10;99.90;;;;;;4981829;28;20050;-71
2023/07/06 01:02:53;;;;;;;17.65;9.57;;;12.10;99.90;;;;;;4914872;28;190055;-71
2023/07/06 01:05:23;;;;;;;19.20;9.40;;;12.10;99.90;;;;;;4978868;28;20069;-71
2023/07/06 01:07:51;;;;;;;21.73;10.35;;;12.20;99.90;;;;;;4920298;28;212931;-71
2023/07/06 01:10:18;;;;;;;22.10;10.20;;;12.20;99.90;;;;;;4984490;28;20059;-71
2023/07/06 01:12:44;;;;;;;21.30;9.52;;;12.20;99.90;;;;;;4926669;28;205941;-71
2023/07/06 01:15:10;;;;;;;19.75;9.75;;;12.10;99.90;;;;;;4982599;28;20050;-71
2023/07/06 01:18:00;;;;;;;18.83;9.60;;;12.20;99.90;;;;;;4953043;28;213366;-71
2023/07/06 01:20:37;;;;;;;22.35;10.07;;;12.10;99.90;;;;;;4988132;28;20061;-71
2023/07/06 01:23:21;;;;;;;21.73;10.40;;;12.20;99.90;;;;;;4951220;28;205928;-71
2023/07/06 01:26:05;;;;;;;19.30;9.77;;;12.10;99.90;;;;;;4931923;28;211732;-70
2023/07/06 01:28:59;;;;;;;17.88;10.35;;;12.10;99.90;;;;;;4997151;28;20042;-71
2023/07/06 01:31:28;;;;;;;19.75;10.05;;;12.20;99.90;;;;;;4930755;28;207584;-71
2023/07/06 01:34:02;;;;;;;20.25;10.30;;;12.20;99.90;;;;;;4990495;28;20058;-71
2023/07/06 01:36:38;;;;;;;21.17;9.73;;;12.20;99.90;;;;;;4929465;28;202829;-73
2023/07/06 01:39:14;;;;;;;21.40;9.95;;;12.20;99.90;;;;;;4996468;28;20123;-71
2023/07/06 01:41:40;;;;;;;17.67;10.20;;;12.10;99.90;;;;;;4937036;28;210354;-72
2023/07/06 01:44:12;;;;;;;18.33;10.15;;;12.10;99.90;;;;;;4981476;28;20117;-71
2023/07/06 01:46:51;;;;;;;18.10;9.20;;;12.10;99.90;;;;;;4930484;28;209204;-71
2023/07/06 01:49:18;;;;;;;20.17;9.48;;;12.10;99.90;;;;;;4992382;28;20050;-70
2023/07/06 01:51:56;;;;;;;19.35;9.90;;;12.10;99.90;;;;;;4947968;28;149462;-71
2023/07/06 01:54:35;;;;;;;20.15;10.35;;;12.10;99.90;;;;;;4990292;28;20050;-70
2023/07/06 01:57:14;;;;;;;20.13;9.95;;;12.10;99.90;;;;;;4926144;28;210753;-72
2023/07/06 01:59:46;;;;;;;19.27;10.25;;;12.10;99.90;;;;;;4986079;28;20526;-73
2023/07/06 02:02:14;;;;;;;16.83;9.30;;;12.00;99.90;;;;;;4940920;28;123912;-71
2023/07/06 02:04:43;;;;;;;17.75;9.13;;;12.00;99.90;;;;;;4987449;28;20061;-71
2023/07/06 02:07:11;;;;;;;16.92;8.95;;;12.00;99.90;;;;;;4943272;28;207764;-71
2023/07/06 02:09:46;;;;;;;17.63;8.68;;;12.00;99.90;;;;;;4985798;28;20058;-72
2023/07/06 02:12:13;;;;;;;16.38;8.82;;;11.90;99.90;;;;;;4941735;28;212401;-72
2023/07/06 02:14:41;;;;;;;16.60;9.57;;;11.90;99.90;;;;;;4983945;28;20058;-72
2023/07/06 02:17:07;;;;;;;18.65;8.88;;;11.90;99.90;;;;;;4941191;28;212834;-72
2023/07/06 02:19:35;;;;;;;20.52;9.35;;;11.80;99.90;;;;;;4986338;28;20047;-71
2023/07/06 02:22:04;;;;;;;15.90;8.95;;;11.80;99.90;;;;;;4953228;28;218387;-71
2023/07/06 02:24:32;;;;;;;15.60;8.60;;;11.80;99.90;;;;;;4987705;28;20393;-71
2023/07/06 02:26:58;;;;;;;18.52;8.80;;;11.80;99.90;;;;;;4946084;28;188555;-71
2023/07/06 02:29:24;;;;;;;14.88;8.13;;;11.80;99.90;;;;;;4984428;28;20526;-71
2023/07/06 02:31:50;;;;;;;19.15;7.68;;;11.90;99.90;;;;;;4945745;28;205363;-71
2023/07/06 02:34:24;;;;;;;17.63;8.13;;;11.80;99.90;;;;;;4991582;28;20055;-72
2023/07/06 02:36:54;;;;;;;15.23;8.43;;;11.90;99.90;;;;;;4928664;28;212651;-72
2023/07/06 02:39:24;;;;;;;16.65;8.30;;;11.90;99.90;;;;;;4986766;28;20049;-72
2023/07/06 02:41:54;;;;;;;15.38;7.80;;;11.80;99.90;;;;;;4944744;28;210246;-70
2023/07/06 02:44:21;;;;;;;18.33;8.25;;;11.80;99.90;;;;;;4983572;28;20054;-70
2023/07/06 02:46:48;;;;;;;17.15;8.10;;;11.80;99.90;;;;;;4953469;28;210996;-70
2023/07/06 02:49:15;;;;;;;17.77;7.70;;;11.70;99.90;;;;;;4989371;28;20046;-71
2023/07/06 02:51:42;;;;;;;18.77;8.15;;;11.70;99.90;;;;;;4932128;28;217017;-70
2023/07/06 02:54:13;;;;;;;16.85;7.20;;;11.70;99.90;;;;;;4980338;28;20061;-70
2023/07/06 02:56:41;;;;;;;15.30;7.63;;;11.70;99.90;;;;;;4913848;28;208556;-70
2023/07/06 02:59:09;;;;;;;13.77;7.90;;;11.70;99.90;;;;;;4987343;28;20069;-70
2023/07/06 03:01:36;;;;;;;19.08;7.78;;;11.70;99.90;;;;;;4927298;28;213380;-70
2023/07/06 03:04:09;;;;;;;17.90;9.00;;;11.70;99.90;;;;;;4980861;28;20412;-70
2023/07/06 03:06:38;;;;;;;15.43;7.95;;;11.70;99.90;;;;;;4956168;28;125967;-70
2023/07/06 03:09:07;;;;;;;14.32;7.82;;;11.70;99.90;;;;;;5000029;28;20054;-70
2023/07/06 03:11:34;;;;;;;17.02;8.55;;;11.70;99.90;;;;;;4929952;28;213818;-69
2023/07/06 03:14:02;;;;;;;15.18;8.10;;;11.70;99.90;;;;;;4990432;28;20066;-70
2023/07/06 03:16:29;;;;;;;14.48;8.57;;;11.60;99.90;;;;;;4926821;28;213685;-70
2023/07/06 03:18:55;;;;;;;15.45;8.82;;;11.70;99.90;;;;;;4990342;28;20063;-70
2023/07/06 03:21:21;;;;;;;17.90;9.15;;;11.70;99.90;;;;;;4946721;28;211526;-71
2023/07/06 03:23:49;;;;;;;19.27;9.80;;;11.70;99.90;;;;;;5013146;28;20054;-71
2023/07/06 03:26:16;;;;;;;15.70;8.93;;;11.70;99.90;;;;;;4953725;28;213500;-70
2023/07/06 03:28:42;;;;;;;15.88;8.48;;;11.80;99.90;;;;;;5009543;28;20066;-70
2023/07/06 03:31:08;;;;;;;15.95;9.18;;;11.80;99.90;;;;;;4922335;28;208266;-70
2023/07/06 03:33:34;;;;;;;16.27;9.10;;;11.80;99.90;;;;;;4974897;28;20058;-71
2023/07/06 03:36:00;;;;;;;19.30;9.15;;;11.80;99.90;;;;;;4933594;28;238665;-70
2023/07/06 03:38:26;;;;;;;19.15;9.65;;;11.80;99.90;;;;;;4986702;28;20054;-71
2023/07/06 03:40:53;;;;;;;14.65;8.73;;;11.80;99.90;;;;;;4942498;28;217067;-71
2023/07/06 03:43:19;;;;;;;17.10;9.80;;;11.90;99.90;;;;;;4990493;28;20054;-70
2023/07/06 03:45:48;;;;;;;18.45;8.82;;;11.90;99.90;;;;;;4930718;28;208774;-70
2023/07/06 03:48:15;;;;;;;17.00;9.85;;;11.90;99.90;;;;;;4994735;28;20054;-70
2023/07/06 03:50:43;;;;;;;18.20;9.33;;;11.90;99.90;;;;;;4944236;28;209768;-71
2023/07/06 03:53:10;;;;;;;18.40;9.93;;;11.90;99.90;;;;;;4994796;28;20054;-71
2023/07/06 03:55:37;;;;;;;20.98;10.20;;;11.90;99.90;;;;;;4953310;28;214965;-71
2023/07/06 03:58:03;;;;;;;18.73;9.57;;;12.00;99.90;;;;;;4978309;28;122240;-73
2023/07/06 04:00:30;;;;;;;19.27;10.13;;;12.00;99.90;;;;;;4999277;28;20049;-71
2023/07/06 04:02:57;;;;;;;21.15;10.23;;;12.10;99.90;;;;;;4944490;28;234333;-71
2023/07/06 04:05:34;;;;;;;17.05;9.80;;;12.10;99.90;;;;;;5000640;28;20049;-70
2023/07/06 04:08:13;;;;;;;20.05;9.23;;;12.10;99.90;;;;;;4958388;28;20049;-70
2023/07/06 04:10:40;;;;;;;21.03;10.30;;;12.20;99.90;;;;;;4923020;28;210877;-70
2023/07/06 04:13:08;;;;;;;20.48;10.18;;;12.20;99.90;;;;;;5010911;28;20047;-71
2023/07/06 04:15:35;;;;;;;18.10;9.98;;;12.20;99.90;;;;;;4948504;28;214734;-70
2023/07/06 04:18:03;;;;;;;16.05;10.00;;;12.30;99.90;;;;;;4934076;28;214202;-70
2023/07/06 04:20:30;;;;;;;20.20;9.75;;;12.30;99.90;;;;;;4979171;28;20053;-73
2023/07/06 04:22:58;;;;;;;20.10;9.50;;;12.40;99.90;;;;;;4954961;28;206029;-71
2023/07/06 04:25:32;;;;;;;19.67;9.88;;;12.40;99.90;;;;;;4982474;28;20051;-70
2023/07/06 04:28:02;;;;;;;18.70;9.68;;;12.40;99.90;;;;;;4935754;28;220760;-71
2023/07/06 04:30:32;;;;;;;17.42;9.27;;;12.40;99.90;;;;;;5001569;28;20541;-71
2023/07/06 04:32:59;;;;;;;18.33;10.18;;;12.50;99.90;;;;;;4953188;28;206450;-71
2023/07/06 04:35:26;;;;;;;20.10;9.98;;;12.50;99.90;;;;;;4998076;28;20061;-70
2023/07/06 04:37:53;;;;;;;18.48;10.18;;;12.50;99.90;;;;;;4947494;28;214092;-71
2023/07/06 04:40:26;;;;;;;20.05;9.43;;;12.60;99.90;;;;;;4983788;28;20061;-70
2023/07/06 04:42:53;;;;;;;20.10;9.70;;;12.60;99.90;;;;;;4943232;28;200506;-71
2023/07/06 04:45:22;;;;;;;20.77;9.15;;;12.70;99.90;;;;;;4978396;28;20054;-71
2023/07/06 04:47:51;;;;;;;20.15;9.48;;;12.70;99.90;;;;;;4956372;28;209900;-71
2023/07/06 04:50:22;;;;;;;17.17;9.23;;;12.70;99.90;;;;;;4979309;28;20547;-71
2023/07/06 04:52:53;;;;;;;;;;;12.80;99.90;;;;;;4915629;28;209970;-71
2023/07/06 04:55:24;;;;;;;17.80;9.45;;;12.80;99.90;;;;;;4980621;28;19933;-71
2023/07/06 04:57:55;;;;;;;17.45;8.60;;;12.80;99.90;;;;;;4915580;28;260248;-71
2023/07/06 05:00:25;;;;;;;23.98;9.32;;;12.80;99.90;;;;;;4980818;28;20062;-71
2023/07/06 05:02:53;;;;;;;20.67;9.65;;;12.80;99.90;;;;;;4929153;28;213783;-71
2023/07/06 05:05:22;;;;;;;20.73;9.73;;;12.90;99.90;;;;;;4985517;28;20043;-72
2023/07/06 05:07:49;;;;;;;16.48;8.55;;;13.00;99.90;;;;;;4910474;28;206790;-73
2023/07/06 05:10:15;;;;;;;21.15;8.98;;;13.10;99.90;;;;;;4981987;28;20511;-71
2023/07/06 05:12:44;;;;;;;19.35;9.23;;;13.20;99.90;;;;;;4949479;28;219116;-71
2023/07/06 05:15:11;;;;;;;20.98;9.45;;;13.30;99.90;;;;;;4983610;28;20054;-71
2023/07/06 05:17:38;;;;;;;21.35;9.75;;;13.30;99.90;;;;;;4932622;28;214409;-71
2023/07/06 05:20:14;;;;;;;26.45;9.18;;;13.30;99.90;;;;;;4977099;28;20058;-70
2023/07/06 05:22:42;;;;;;;19.45;9.00;;;13.40;99.90;;;;;;4929529;28;206858;-70
2023/07/06 05:25:11;;;;;;;18.35;9.23;;;13.40;99.90;;;;;;4982357;28;20065;-70
2023/07/06 05:27:37;;;;;;;19.20;9.07;;;13.40;99.90;;;;;;4940725;28;229924;-70
2023/07/06 05:30:05;;;;;;;20.17;9.63;;;13.40;99.90;;;;;;4977941;28;20054;-71
2023/07/06 05:32:31;;;;;;;20.13;9.13;;;13.40;99.90;;;;;;4942217;28;207584;-71
2023/07/06 05:34:57;;;;;;;19.42;9.00;;;13.50;99.90;;;;;;4980587;28;20063;-71
2023/07/06 05:37:24;;;;;;;18.58;8.82;;;13.60;99.90;;;;;;4944115;28;228449;-71
2023/07/06 05:39:50;;;;;;;18.33;8.48;;;13.70;99.90;;;;;;4981866;28;20703;-71
2023/07/06 05:42:17;;;;;;;18.17;8.05;;;13.80;99.90;;;;;;4924100;28;215057;-71
2023/07/06 05:44:45;;;;;;;25.05;8.75;;;13.90;99.90;;;;;;4984780;28;20046;-70
2023/07/06 05:47:12;;;;;;;16.90;8.60;;;14.00;99.90;;;;;;4934648;28;216389;-71
2023/07/06 05:49:38;;;;;;;19.15;8.15;;;14.20;99.90;;;;;;4977526;28;20058;-71
2023/07/06 05:52:05;;;;;;;18.63;7.38;;;14.40;99.90;;;;;;4942607;28;221557;-71
2023/07/06 05:54:32;;;;;;;14.88;7.28;;;14.50;99.90;;;;;;4986980;28;20055;-71
2023/07/06 05:57:02;;;;;;;17.10;7.30;;;14.70;99.90;;;;;;4915272;28;224837;-71
2023/07/06 05:59:29;;;;;;;17.73;7.30;;;14.90;99.90;;;;;;4975650;28;20069;-71
2023/07/06 06:01:58;;;;;;;14.55;6.50;;;15.00;99.90;;;;;;4948900;28;224881;-71
2023/07/06 06:04:25;;;;;;;17.85;6.78;;;15.20;99.90;;;;;;4992809;28;20408;-70
2023/07/06 06:06:55;;;;;;;17.30;7.80;;;15.40;99.90;;;;;;4929404;28;210484;-70
2023/07/06 06:09:24;;;;;;;18.23;7.32;;;15.60;99.90;;;;;;4984710;28;20046;-69
2023/07/06 06:11:51;;;;;;;18.40;7.05;;;15.80;99.90;;;;;;4933101;28;218564;-70
2023/07/06 06:14:18;;;;;;;17.77;7.15;;;15.80;99.90;;;;;;4974815;28;20080;-70
2023/07/06 06:16:44;;;;;;;16.15;6.78;;;16.00;99.90;;;;;;4925055;28;213412;-70
2023/07/06 06:19:10;;;;;;;16.40;7.22;;;16.10;99.90;;;;;;4983513;28;20414;-69
2023/07/06 06:21:36;;;;;;;16.55;6.32;;;16.30;99.90;;;;;;4951912;28;221037;-70
2023/07/06 06:24:08;;;;;;;17.60;7.05;;;16.50;99.90;;;;;;4999816;28;20054;-71
2023/07/06 06:26:35;;;;;;;20.90;7.05;;;16.70;99.90;;;;;;4925263;28;209295;-69
2023/07/06 06:29:02;;;;;;;23.38;6.43;;;16.80;99.90;;;;;;4978945;28;20054;-69
2023/07/06 06:31:29;;;;;;;19.35;6.68;;;16.80;99.90;;;;;;4931304;28;207861;-69
2023/07/06 06:33:55;;;;;;;20.48;7.45;;;17.00;99.90;;;;;;4993652;28;20050;-70
2023/07/06 06:36:22;;;;;;;19.40;6.85;;;17.00;99.90;;;;;;4934874;28;236306;-70
2023/07/06 06:38:48;;;;;;;28.58;7.28;;;17.20;99.90;;;;;;4998449;28;20089;-70
2023/07/06 06:41:15;;;;;;;18.75;6.45;;;17.40;99.90;;;;;;4931019;28;216310;-69
2023/07/06 06:43:44;;;;;;;16.23;6.05;;;17.50;99.90;;;;;;5004651;28;20061;-69
2023/07/06 06:46:12;;;;;;;16.23;6.63;;;17.60;99.90;;;;;;4938932;28;216533;-69
2023/07/06 06:48:40;;;;;;;21.75;6.32;;;17.80;99.90;;;;;;4984024;28;20058;-70
2023/07/06 06:51:10;;;;;;;19.65;6.07;;;18.00;99.90;;;;;;4949409;28;209316;-71
2023/07/06 06:53:39;;;;;;;20.52;7.28;;;18.10;99.90;;;;;;5017230;28;20058;-70
2023/07/06 06:56:07;;;;;;;16.77;5.55;;;18.40;99.90;;;;;;4920638;28;217099;-70
2023/07/06 06:58:35;;;;;;;17.77;5.85;;;18.50;99.90;;;;;;4987823;28;20072;-71
2023/07/06 07:01:03;;;;;;;17.85;6.15;;;18.60;99.90;;;;;;4927930;28;213328;-70
2023/07/06 07:03:30;;;;;;;16.77;5.47;;;18.40;99.90;;;;;;4976210;28;20063;-71
2023/07/06 07:06:01;;;;;;;17.88;5.82;;;18.70;99.90;;;;;;4934454;28;216657;-71
2023/07/06 07:08:28;;;;;;;17.45;5.30;;;18.70;99.90;;;;;;4977978;28;20059;-70
2023/07/06 07:10:57;;;;;;;19.05;5.70;;;18.70;99.90;;;;;;4937602;28;216520;-71
2023/07/06 07:13:25;;;;;;;16.58;5.03;;;18.90;99.90;;;;;;5002434;28;20058;-71
2023/07/06 07:15:52;;;;;;;15.25;5.35;;;19.10;99.90;;;;;;4929866;28;208442;-72
2023/07/06 07:18:18;;;;;;;14.20;5.00;;;19.20;99.90;;;;;;5013703;28;20073;-72
2023/07/06 07:20:49;;;;;;;19.00;5.37;;;19.50;99.90;;;;;;4927103;28;210524;-72
2023/07/06 07:23:15;;;;;;;15.40;5.50;;;19.70;99.90;;;;;;5003897;28;20049;-72
2023/07/06 07:25:41;;;;;;;16.83;5.70;;;19.80;99.90;;;;;;4931848;28;228495;-72
2023/07/06 07:28:07;;;;;;;14.32;5.00;;;19.70;99.90;;;;;;4997859;28;20061;-72
2023/07/06 07:30:34;;;;;;;15.52;5.20;;;19.70;99.90;;;;;;4960440;28;208721;-72
2023/07/06 07:33:00;;;;;;;15.85;5.28;;;19.90;99.90;;;;;;4972167;28;206729;-71
2023/07/06 07:35:26;;;;;;;16.60;4.93;;;19.80;99.90;;;;;;5013973;28;20519;-72
2023/07/06 07:37:52;;;;;;;13.95;4.60;;;20.00;99.90;;;;;;4956957;28;209479;-71
2023/07/06 07:40:19;;;;;;;18.27;4.90;;;20.20;99.90;;;;;;4983886;28;20527;-71
2023/07/06 07:42:49;;;;;;;14.20;4.55;;;20.40;99.90;;;;;;4935260;28;208713;-72
2023/07/06 07:45:17;;;;;;;13.10;3.78;;;20.60;99.90;;;;;;4983672;28;20065;-72
2023/07/06 07:47:43;;;;;;;12.60;3.38;;;20.80;99.90;;;;;;4945300;28;212909;-73
2023/07/06 07:50:09;;;;;;;15.57;3.30;;;21.00;99.90;;;;;;4985645;28;20423;-72
2023/07/06 07:52:36;;;;;;;14.40;3.53;;;21.10;99.90;;;;;;4937522;28;213881;-72
2023/07/06 07:55:02;;;;;;;13.48;3.97;;;20.90;99.90;;;;;;4979298;28;20054;-73
2023/07/06 07:57:30;;;;;;;10.98;3.58;;;21.00;99.90;;;;;;4940420;28;210324;-73
2023/07/06 07:59:56;;;;;;;14.00;3.90;;;21.00;99.90;;;;;;4982789;28;20053;-72
2023/07/06 08:02:22;;;;;;;12.02;3.65;;;21.40;99.90;;;;;;4947091;28;214212;-73
2023/07/06 08:04:49;;;;;;;10.30;3.10;;;21.70;99.90;;;;;;4982184;28;20566;-73
2023/07/06 08:07:15;;;;;;;13.98;3.53;;;22.00;99.90;;;;;;4944488;28;215216;-72
2023/07/06 08:09:41;;;;;;;12.38;3.15;;;22.20;99.90;;;;;;4982976;28;20467;-72
2023/07/06 08:12:07;;;;;;;12.57;3.42;;;22.40;99.90;;;;;;4939453;28;208702;-72
2023/07/06 08:14:41;;;;;;;12.15;3.13;;;22.10;99.90;;;;;;4988300;28;20084;-71
2023/07/06 08:17:07;;;;;;;11.15;2.80;;;21.90;99.90;;;;;;4930804;28;213081;-72
2023/07/06 08:19:33;;;;;;;12.13;3.05;;;22.20;99.90;;;;;;4985168;28;20069;-72
2023/07/06 08:22:00;;;;;;;13.52;3.10;;;22.40;99.90;;;;;;4961346;28;213957;-71
2023/07/06 08:24:27;;;;;;;10.73;2.70;;;22.70;99.90;;;;;;4996635;28;20069;-71
2023/07/06 08:26:54;;;;;;;10.52;2.80;;;22.70;99.90;;;;;;4939173;28;213096;-71
2023/07/06 08:29:20;;;;;;;10.90;2.40;;;22.80;99.70;;;;;;4981604;28;20054;-70
2023/07/06 08:31:47;;;;;;;10.30;2.80;;;23.00;99.10;;;;;;4938122;28;206865;-72
2023/07/06 08:34:16;;;;;;;10.60;2.10;;;22.60;99.40;;;;;;4981501;28;20459;-71
2023/07/06 08:36:44;;;;;;;8.57;2.15;;;22.60;98.40;;;;;;4923516;28;214675;-71
2023/07/06 08:39:10;;;;;;;9.48;2.08;;;22.70;99.40;;;;;;4992024;28;20499;-71
2023/07/06 08:41:44;;;;;;;10.85;2.42;;;22.70;99.00;;;;;;4926566;28;213040;-71
2023/07/06 08:44:12;;;;;;;9.90;2.00;;;23.30;97.50;;;;;;4982951;28;20058;-71
2023/07/06 08:46:50;;;;;;;9.30;2.20;;;23.60;98.40;;;;;;4917696;28;205342;-70
2023/07/06 08:49:26;;;;;;;8.65;1.92;;;23.80;96.40;;;;;;4990690;28;20405;-70
2023/07/06 08:51:53;;;;;;;9.27;2.00;;;23.20;97.40;;;;;;4912393;28;177692;-72
2023/07/06 08:54:24;;;;;;;10.38;2.15;;;22.50;98.30;;;;;;4975783;28;20074;-71
2023/07/06 08:56:51;;;;;;;9.73;2.15;;;22.40;98.20;;;;;;4922828;28;211500;-70
2023/07/06 08:59:37;;;;;;;10.30;2.10;;;23.00;97.10;;;;;;4988552;28;20070;-71
2023/07/06 09:02:15;;;;;;;9.23;1.98;;;23.60;96.70;;;;;;4940162;28;213023;-71
2023/07/06 09:04:42;;;;;;;9.90;1.90;;;24.20;96.20;;;;;;4985184;28;20058;-71
2023/07/06 09:07:12;;;;;;;8.05;1.83;;;24.50;95.20;;;;;;4948073;28;220618;-72
2023/07/06 09:09:44;;;;;;;7.00;1.73;;;24.70;95.50;;;;;;5005400;28;20062;-68
2023/07/06 09:12:23;;;;;;;7.65;1.70;;;25.10;94.20;;;;;;4951936;28;233645;-70
2023/07/06 09:14:51;;;;;;;8.10;1.85;;;25.10;93.90;;;;;;4983014;28;20088;-71
2023/07/06 09:17:19;;;;;;;8.63;1.80;;;24.70;93.90;;;;;;4953526;28;210160;-71
2023/07/06 09:19:45;;;;;;;7.75;1.50;;;25.00;93.50;;;;;;4983583;28;20058;-70
2023/07/06 09:22:12;;;;;;;7.78;1.90;;;25.10;93.40;;;;;;4938403;28;210598;-70
2023/07/06 09:24:43;;;;;;;7.63;1.52;;;24.60;93.00;;;;;;4981302;28;20062;-69
2023/07/06 09:27:17;;;;;;;8.73;1.70;;;23.70;93.70;;;;;;4924027;28;219785;-68
2023/07/06 09:29:44;;;;;;;9.27;1.98;;;23.60;94.60;;;;;;4978583;28;20620;-69
2023/07/06 09:32:19;;;;;;;7.57;1.77;;;24.10;94.70;;;;;;4962583;28;208875;-70
2023/07/06 09:34:51;;;;;;;9.35;2.05;;;24.80;93.60;;;;;;5004703;28;20054;-69
2023/07/06 09:37:21;;;;;;;8.80;1.85;;;25.00;93.20;;;;;;4946700;28;216012;-69
2023/07/06 09:40:05;;;;;;;8.25;1.60;;;25.20;94.10;;;;;;4986671;28;20046;-69
2023/07/06 09:42:33;;;;;;;7.88;2.00;;;25.20;91.40;;;;;;4943384;28;222437;-68
2023/07/06 09:45:01;;;;;;;8.63;1.95;;;24.70;92.60;;;;;;4980617;28;20065;-69
2023/07/06 09:47:33;;;;;;;10.18;1.85;;;23.80;93.50;;;;;;4971328;28;206902;-68
2023/07/06 09:50:37;;;;;;;7.85;1.75;;;23.00;94.50;;;;;;4988594;28;20065;-69
2023/07/06 09:53:05;;;;;;;9.57;1.85;;;22.80;94.20;;;;;;4906283;28;211884;-70
2023/07/06 09:55:31;;;;;;;8.70;1.90;;;22.30;94.90;;;;;;4973592;28;198950;-69
2023/07/06 09:57:59;;;;;;;8.70;1.90;;;22.20;94.90;;;;;;4891486;28;189272;-69
2023/07/06 10:00:35;;;;;;;6.72;1.40;;;22.20;94.70;;;;;;4967853;28;20053;-70
2023/07/06 10:03:13;;;;;;;6.88;1.60;;;22.00;94.00;;;;;;4905045;28;205397;-69
2023/07/06 10:06:15;;;;;;;6.28;1.60;;;21.90;94.00;;;;;;4911808;28;205199;-68
2023/07/06 10:09:08;;;;;;;10.23;1.83;;;21.80;94.20;;;;;;4968806;28;20047;-69
2023/07/06 10:11:51;;;;;;;8.23;1.60;;;22.10;94.60;;;;;;4924087;28;170740;-69
2023/07/06 10:14:48;;;;;;;8.05;1.75;;;22.80;94.30;;;;;;4964705;28;20412;-68
2023/07/06 10:17:30;;;;;;;8.50;1.75;;;22.10;94.60;;;;;;4902147;28;209440;-69
2023/07/06 10:20:05;;;;;;;7.03;1.63;;;21.70;94.80;;;;;;4943472;28;20055;-69
2023/07/06 10:22:43;;;;;;;10.57;1.60;;;21.50;95.10;;;;;;4915269;28;206503;-69
2023/07/06 10:25:26;;;;;;;11.15;1.92;;;21.40;94.70;;;;;;4965185;28;20519;-69
2023/07/06 10:28:16;;;;;;;8.40;1.65;;;21.50;95.30;;;;;;4905229;28;212582;-69
2023/07/06 10:30:47;;;;;;;7.25;1.67;;;21.60;94.70;;;;;;4934070;28;245063;-68
2023/07/06 10:33:31;;;;;;;6.88;1.70;;;21.50;94.80;;;;;;5030267;28;20050;-70
2023/07/06 10:35:58;;;;;;;6.72;1.52;;;21.50;95.30;;;;;;4938361;28;210304;-70
2023/07/06 10:38:25;;;;;;;8.93;1.75;;;21.50;95.20;;;;;;4993916;28;20523;-70
2023/07/06 10:41:09;;;;;;;7.33;1.57;;;22.00;95.40;;;;;;4928821;28;212479;-69
2023/07/06 10:43:40;;;;;;;6.63;1.40;;;23.30;94.60;;;;;;4992931;28;20074;-69
2023/07/06 10:46:33;;;;;;;7.25;1.95;;;23.70;93.70;;;;;;4937273;28;212597;-68
2023/07/06 10:49:15;;;;;;;5.80;1.45;;;23.70;92.90;;;;;;4984384;28;20058;-68
2023/07/06 10:51:50;;;;;;;5.50;1.50;;;23.50;92.00;;;;;;4940679;28;166108;-69
2023/07/06 10:54:23;;;;;;;8.00;1.90;;;23.50;93.00;;;;;;4997891;28;20054;-69
2023/07/06 10:57:03;;;;;;;5.82;1.48;;;23.40;93.60;;;;;;4920447;28;232644;-69
2023/07/06 10:59:36;;;;;;;9.13;1.67;;;23.20;93.40;;;;;;4989409;28;20146;-69
2023/07/06 11:02:23;;;;;;;7.00;1.70;;;23.00;93.50;;;;;;4920384;28;212705;-70
2023/07/06 11:04:53;;;;;;;6.43;1.48;;;22.90;94.10;;;;;;4978762;28;20062;-69
2023/07/06 11:07:42;;;;;;;7.10;1.57;;;22.70;94.30;;;;;;4941995;28;211574;-69
2023/07/06 11:10:20;;;;;;;7.47;1.70;;;22.50;93.20;;;;;;4983688;28;20051;-69
2023/07/06 11:13:16;;;;;;;9.15;1.70;;;22.00;94.00;;;;;;4927208;28;216023;-68
2023/07/06 11:16:02;;;;;;;7.25;1.55;;;21.60;94.10;;;;;;4921988;28;213206;-69
2023/07/06 11:18:48;;;;;;;8.02;1.90;;;21.50;94.70;;;;;;4977645;28;20533;-69
2023/07/06 11:21:36;;;;;;;9.80;2.00;;;21.30;94.80;;;;;;4943891;28;219016;-68
2023/07/06 11:24:07;;;;;;;7.90;1.65;;;21.10;95.10;;;;;;4992100;28;20046;-68
2023/07/06 11:26:39;;;;;;;9.30;2.00;;;21.00;95.20;;;;;;4949343;28;215583;-69
2023/07/06 11:29:08;;;;;;;8.63;2.00;;;20.90;95.70;;;;;;5010718;28;20057;-68
2023/07/06 11:31:59;;;;;;;11.07;2.10;;;20.80;95.90;;;;;;4948263;28;208822;-69
2023/07/06 11:34:52;;;;;;;7.45;1.85;;;20.90;95.80;;;;;;4974732;28;20444;-69
2023/07/06 11:37:24;;;;;;;9.85;1.73;;;20.80;95.80;;;;;;4932805;28;213455;-68
2023/07/06 11:40:00;;;;;;;9.15;1.70;;;21.00;96.00;;;;;;4982904;28;20050;-68
2023/07/06 11:42:54;;;;;;;7.60;2.08;;;21.30;95.70;;;;;;4946672;28;233810;-68
2023/07/06 11:45:28;;;;;;;7.95;1.92;;;21.80;96.20;;;;;;4984426;28;20050;-68
2023/07/06 11:48:18;;;;;;;7.13;2.10;;;21.80;95.80;;;;;;4966340;28;142447;-67
2023/07/06 11:50:46;;;;;;;9.43;2.03;;;22.00;96.00;;;;;;4933988;28;212177;-68
2023/07/06 11:53:29;;;;;;;8.00;1.50;;;22.50;96.00;;;;;;4995038;28;20057;-68
2023/07/06 11:56:18;;;;;;;8.65;1.90;;;23.20;95.20;;;;;;4923375;28;206492;-67
2023/07/06 12:04:04;;;;;;;6.35;1.10;;;23.30;92.20;;;;;;4983215;28;20416;-67
2023/07/06 12:06:30;;;;;;;5.78;1.17;;;22.80;93.00;;;;;;4940874;28;213133;-67
2023/07/06 12:09:03;;;;;;;6.68;1.30;;;22.70;92.90;;;;;;4989192;28;20531;-67
2023/07/06 12:11:30;;;;;;;8.88;1.50;;;23.10;93.20;;;;;;4947383;28;210253;-67
2023/07/06 12:13:58;;;;;;;7.25;1.40;;;23.60;92.10;;;;;;4993518;28;20154;-67
2023/07/06 12:16:40;;;;;;;11.00;1.60;;;24.00;92.20;;;;;;4944975;28;212349;-67
2023/07/06 12:19:12;;;;;;;9.02;1.42;;;24.70;90.20;;;;;;4996210;28;20519;-68
2023/07/06 12:21:42;;;;;;;10.95;1.40;;;25.00;91.20;;;;;;4938247;28;206708;-67
2023/07/06 12:24:15;;;;;;;5.10;1.00;;;25.40;90.60;;;;;;4992103;28;20069;-68
2023/07/06 12:26:45;;;;;;;6.93;1.40;;;25.70;91.20;;;;;;4940161;28;213196;-67
2023/07/06 12:29:15;;;;;;;6.93;1.20;;;25.70;87.10;;;;;;4981790;28;20054;-68
2023/07/06 12:31:44;;;;;;;4.88;1.13;;;25.80;90.30;;;;;;4950113;28;209984;-69
2023/07/06 12:34:16;;;;;;;6.15;1.23;;;26.30;90.20;;;;;;4986028;28;20128;-68
2023/07/06 12:36:43;;;;;;;6.50;1.33;;;26.20;89.50;;;;;;4931991;28;212689;-67
2023/07/06 12:39:14;;;;;;;6.53;1.20;;;26.50;90.30;;;;;;4987544;28;20051;-67
2023/07/06 12:41:41;;;;;;;6.93;1.42;;;26.60;88.90;;;;;;4940342;28;206285;-67
2023/07/06 12:44:21;;;;;;;7.97;1.45;;;26.80;87.80;;;;;;5001251;28;20042;-67
2023/07/06 12:46:51;;;;;;;6.38;1.20;;;26.60;88.20;;;;;;4936091;28;212242;-68
2023/07/06 12:49:22;;;;;;;8.13;1.65;;;26.20;89.50;;;;;;4989602;28;20400;-67
2023/07/06 12:51:57;;;;;;;9.55;1.67;;;25.90;89.50;;;;;;4947037;28;213803;-66
2023/07/06 12:54:26;;;;;;;6.75;1.38;;;25.30;90.00;;;;;;4985530;28;20081;-66
2023/07/06 12:57:02;;;;;;;5.93;1.50;;;24.50;90.80;;;;;;4936817;28;213118;-66